sensor_id;sensor_type;location;lat;lon;timestamp;temperature;humidity
42261;DHT22;27926;48.062;7.474;2022-11-20T00:03:37;5.30;99.90
42261;DHT22;27926;48.062;7.474;2022-11-20T00:06:03;5.20;99.90
42261;DHT22;27926;48.062;7.474;2022-11-20T00:08:28;5.20;99.90
42261;DHT22;27926;48.062;7.474;2022-11-20T00:10:53;5.20;99.90
42261;DHT22;27926;48.062;7.474;2022-11-20T00:13:17;5.10;99.90
42261;DHT22;27926;48.062;7.474;2022-11-20T00:15:42;6.70;99.90
42261;DHT22;27926;48.062;7.474;2022-11-20T00:18:07;5.10;99.90
42261;DHT22;27926;48.062;7.474;2022-11-20T00:20:31;5.70;99.90
42261;DHT22;27926;48.062;7.474;2022-11-20T00:22:56;5.10;99.90
42261;DHT22;27926;48.062;7.474;2022-11-20T00:25:20;5.10;99.90
42261;DHT22;27926;48.062;7.474;2022-11-20T00:27:45;5.10;99.90
42261;DHT22;27926;48.062;7.474;2022-11-20T00:30:10;5.10;99.90
42261;DHT22;27926;48.062;7.474;2022-11-20T00:32:34;5.10;99.90
42261;DHT22;27926;48.062;7.474;2022-11-20T00:34:59;5.10;99.90
42261;DHT22;27926;48.062;7.474;2022-11-20T00:37:24;5.10;99.90
42261;DHT22;27926;48.062;7.474;2022-11-20T00:39:48;6.30;99.90
42261;DHT22;27926;48.062;7.474;2022-11-20T00:42:13;5.10;99.90
42261;DHT22;27926;48.062;7.474;2022-11-20T00:44:38;5.20;99.90
42261;DHT22;27926;48.062;7.474;2022-11-20T00:47:03;5.40;99.90
42261;DHT22;27926;48.062;7.474;2022-11-20T00:49:27;5.20;99.90
42261;DHT22;27926;48.062;7.474;2022-11-20T00:51:52;6.10;99.90
42261;DHT22;27926;48.062;7.474;2022-11-20T00:54:16;5.60;99.90
42261;DHT22;27926;48.062;7.474;2022-11-20T00:56:41;6.10;99.90
42261;DHT22;27926;48.062;7.474;2022-11-20T00:59:06;5.40;99.90
42261;DHT22;27926;48.062;7.474;2022-11-20T01:01:30;5.40;99.90
42261;DHT22;27926;48.062;7.474;2022-11-20T01:03:57;5.50;99.90
42261;DHT22;27926;48.062;7.474;2022-11-20T01:06:26;5.50;99.90
42261;DHT22;27926;48.062;7.474;2022-11-20T01:08:54;5.50;99.90
42261;DHT22;27926;48.062;7.474;2022-11-20T01:11:28;5.80;99.90
42261;DHT22;27926;48.062;7.474;2022-11-20T01:13:54;5.50;99.90
42261;DHT22;27926;48.062;7.474;2022-11-20T01:16:21;5.60;99.90
42261;DHT22;27926;48.062;7.474;2022-11-20T01:18:48;5.60;99.90
42261;DHT22;27926;48.062;7.474;2022-11-20T01:21:30;5.70;99.90
42261;DHT22;27926;48.062;7.474;2022-11-20T01:23:56;5.50;99.90
42261;DHT22;27926;48.062;7.474;2022-11-20T01:26:23;5.60;99.90
42261;DHT22;27926;48.062;7.474;2022-11-20T01:28:48;6.10;99.90
42261;DHT22;27926;48.062;7.474;2022-11-20T01:31:19;5.60;99.90
42261;DHT22;27926;48.062;7.474;2022-11-20T01:33:44;5.60;99.90
42261;DHT22;27926;48.062;7.474;2022-11-20T01:36:10;5.60;99.90
42261;DHT22;27926;48.062;7.474;2022-11-20T01:38:35;5.60;99.90
42261;DHT22;27926;48.062;7.474;2022-11-20T01:41:00;5.60;99.90
42261;DHT22;27926;48.062;7.474;2022-11-20T01:43:25;5.60;99.90
42261;DHT22;27926;48.062;7.474;2022-11-20T01:48:37;5.60;99.90
42261;DHT22;27926;48.062;7.474;2022-11-20T01:51:04;5.60;99.90
42261;DHT22;27926;48.062;7.474;2022-11-20T01:53:33;5.60;99.90
42261;DHT22;27926;48.062;7.474;2022-11-20T01:56:01;6.60;99.90
42261;DHT22;27926;48.062;7.474;2022-11-20T01:58:35;6.30;99.90
42261;DHT22;27926;48.062;7.474;2022-11-20T02:01:03;5.90;99.90
42261;DHT22;27926;48.062;7.474;2022-11-20T02:03:28;5.60;99.90
42261;DHT22;27926;48.062;7.474;2022-11-20T02:08:43;5.50;99.90
42261;DHT22;27926;48.062;7.474;2022-11-20T02:11:09;5.50;99.90
42261;DHT22;27926;48.062;7.474;2022-11-20T02:13:34;5.50;99.90
42261;DHT22;27926;48.062;7.474;2022-11-20T02:16:26;5.50;99.90
42261;DHT22;27926;48.062;7.474;2022-11-20T02:18:56;5.50;99.90
42261;DHT22;27926;48.062;7.474;2022-11-20T02:21:40;5.50;99.90
42261;DHT22;27926;48.062;7.474;2022-11-20T02:24:14;5.50;99.90
42261;DHT22;27926;48.062;7.474;2022-11-20T02:26:50;6.00;99.90
42261;DHT22;27926;48.062;7.474;2022-11-20T02:29:19;5.40;99.90
42261;DHT22;27926;48.062;7.474;2022-11-20T02:31:45;5.40;99.90
42261;DHT22;27926;48.062;7.474;2022-11-20T02:34:09;5.90;99.90
42261;DHT22;27926;48.062;7.474;2022-11-20T02:36:35;5.70;99.90
42261;DHT22;27926;48.062;7.474;2022-11-20T02:39:01;5.50;99.90
42261;DHT22;27926;48.062;7.474;2022-11-20T02:41:36;5.50;99.90
42261;DHT22;27926;48.062;7.474;2022-11-20T02:44:02;5.60;99.90
42261;DHT22;27926;48.062;7.474;2022-11-20T02:46:28;5.60;99.90
42261;DHT22;27926;48.062;7.474;2022-11-20T02:48:52;5.60;99.90
42261;DHT22;27926;48.062;7.474;2022-11-20T02:51:17;5.70;99.90
42261;DHT22;27926;48.062;7.474;2022-11-20T02:53:42;5.80;99.90
42261;DHT22;27926;48.062;7.474;2022-11-20T02:56:06;5.90;99.90
42261;DHT22;27926;48.062;7.474;2022-11-20T02:58:31;5.80;99.90
42261;DHT22;27926;48.062;7.474;2022-11-20T03:00:56;7.50;99.90
42261;DHT22;27926;48.062;7.474;2022-11-20T03:03:21;6.10;99.90
42261;DHT22;27926;48.062;7.474;2022-11-20T03:05:45;6.10;99.90
42261;DHT22;27926;48.062;7.474;2022-11-20T03:08:10;6.00;99.90
42261;DHT22;27926;48.062;7.474;2022-11-20T03:10:34;6.80;99.90
42261;DHT22;27926;48.062;7.474;2022-11-20T03:12:59;6.30;99.90
42261;DHT22;27926;48.062;7.474;2022-11-20T03:15:24;6.00;99.90
42261;DHT22;27926;48.062;7.474;2022-11-20T03:17:48;6.10;99.90
42261;DHT22;27926;48.062;7.474;2022-11-20T03:20:13;6.00;99.90
42261;DHT22;27926;48.062;7.474;2022-11-20T03:22:38;6.00;99.90
42261;DHT22;27926;48.062;7.474;2022-11-20T03:25:02;7.10;99.90
42261;DHT22;27926;48.062;7.474;2022-11-20T03:27:32;6.10;99.90
42261;DHT22;27926;48.062;7.474;2022-11-20T03:29:56;6.20;99.90
42261;DHT22;27926;48.062;7.474;2022-11-20T03:32:21;6.10;99.90
42261;DHT22;27926;48.062;7.474;2022-11-20T03:34:46;6.20;99.90
42261;DHT22;27926;48.062;7.474;2022-11-20T03:37:10;6.30;99.90
42261;DHT22;27926;48.062;7.474;2022-11-20T03:39:38;6.30;99.90
42261;DHT22;27926;48.062;7.474;2022-11-20T03:42:02;6.60;99.90
42261;DHT22;27926;48.062;7.474;2022-11-20T03:44:47;6.40;99.90
42261;DHT22;27926;48.062;7.474;2022-11-20T03:47:11;7.20;99.90
42261;DHT22;27926;48.062;7.474;2022-11-20T03:49:36;6.40;99.90
42261;DHT22;27926;48.062;7.474;2022-11-20T03:52:01;6.50;99.90
42261;DHT22;27926;48.062;7.474;2022-11-20T03:54:26;6.50;99.90
42261;DHT22;27926;48.062;7.474;2022-11-20T03:56:50;6.80;99.90
42261;DHT22;27926;48.062;7.474;2022-11-20T03:59:15;6.60;99.90
42261;DHT22;27926;48.062;7.474;2022-11-20T04:01:40;6.50;99.90
42261;DHT22;27926;48.062;7.474;2022-11-20T04:04:04;6.50;99.90
42261;DHT22;27926;48.062;7.474;2022-11-20T04:06:33;6.50;99.90
42261;DHT22;27926;48.062;7.474;2022-11-20T04:08:58;6.50;99.90
42261;DHT22;27926;48.062;7.474;2022-11-20T04:11:25;6.50;99.90
42261;DHT22;27926;48.062;7.474;2022-11-20T04:13:53;6.50;99.90
42261;DHT22;27926;48.062;7.474;2022-11-20T04:16:19;6.50;99.90
42261;DHT22;27926;48.062;7.474;2022-11-20T04:18:44;6.60;99.90
42261;DHT22;27926;48.062;7.474;2022-11-20T04:21:09;6.50;99.90
42261;DHT22;27926;48.062;7.474;2022-11-20T04:23:34;6.60;99.90
42261;DHT22;27926;48.062;7.474;2022-11-20T04:26:09;6.50;99.90
42261;DHT22;27926;48.062;7.474;2022-11-20T04:28:35;6.50;99.90
42261;DHT22;27926;48.062;7.474;2022-11-20T04:33:28;6.50;99.90
42261;DHT22;27926;48.062;7.474;2022-11-20T04:35:52;6.50;99.90
42261;DHT22;27926;48.062;7.474;2022-11-20T04:38:17;6.50;99.90
42261;DHT22;27926;48.062;7.474;2022-11-20T04:40:42;6.80;99.90
42261;DHT22;27926;48.062;7.474;2022-11-20T04:43:06;8.20;99.90
42261;DHT22;27926;48.062;7.474;2022-11-20T04:45:31;6.40;99.90
42261;DHT22;27926;48.062;7.474;2022-11-20T04:47:55;6.40;99.90
42261;DHT22;27926;48.062;7.474;2022-11-20T04:50:20;6.30;99.90
42261;DHT22;27926;48.062;7.474;2022-11-20T04:52:44;6.30;99.90
42261;DHT22;27926;48.062;7.474;2022-11-20T04:55:09;6.30;99.90
42261;DHT22;27926;48.062;7.474;2022-11-20T04:57:33;6.60;99.90
42261;DHT22;27926;48.062;7.474;2022-11-20T04:59:58;6.30;99.90
42261;DHT22;27926;48.062;7.474;2022-11-20T05:02:23;6.50;99.90
42261;DHT22;27926;48.062;7.474;2022-11-20T05:04:48;6.20;99.90
42261;DHT22;27926;48.062;7.474;2022-11-20T05:07:12;6.30;99.90
42261;DHT22;27926;48.062;7.474;2022-11-20T05:09:37;6.20;99.90
42261;DHT22;27926;48.062;7.474;2022-11-20T05:12:02;6.20;99.90
42261;DHT22;27926;48.062;7.474;2022-11-20T05:14:26;6.20;99.90
42261;DHT22;27926;48.062;7.474;2022-11-20T05:16:51;6.20;99.90
42261;DHT22;27926;48.062;7.474;2022-11-20T05:19:15;6.20;99.90
42261;DHT22;27926;48.062;7.474;2022-11-20T05:21:40;6.20;99.90
42261;DHT22;27926;48.062;7.474;2022-11-20T05:24:05;6.40;99.90
42261;DHT22;27926;48.062;7.474;2022-11-20T05:26:30;6.30;99.90
42261;DHT22;27926;48.062;7.474;2022-11-20T05:28:54;6.30;99.90
42261;DHT22;27926;48.062;7.474;2022-11-20T05:31:23;6.60;99.90
42261;DHT22;27926;48.062;7.474;2022-11-20T05:33:48;6.60;99.90
42261;DHT22;27926;48.062;7.474;2022-11-20T05:36:14;6.40;99.90
42261;DHT22;27926;48.062;7.474;2022-11-20T05:38:40;6.80;99.90
42261;DHT22;27926;48.062;7.474;2022-11-20T05:41:12;7.10;99.90
42261;DHT22;27926;48.062;7.474;2022-11-20T05:43:38;6.40;99.90
42261;DHT22;27926;48.062;7.474;2022-11-20T05:46:05;6.40;99.90
42261;DHT22;27926;48.062;7.474;2022-11-20T05:48:30;6.40;99.90
42261;DHT22;27926;48.062;7.474;2022-11-20T05:50:57;6.50;99.90
42261;DHT22;27926;48.062;7.474;2022-11-20T05:53:22;6.50;99.90
42261;DHT22;27926;48.062;7.474;2022-11-20T05:55:59;6.50;99.90
42261;DHT22;27926;48.062;7.474;2022-11-20T05:58:24;6.50;99.90
42261;DHT22;27926;48.062;7.474;2022-11-20T06:00:48;6.60;99.90
42261;DHT22;27926;48.062;7.474;2022-11-20T06:03:13;6.50;99.90
42261;DHT22;27926;48.062;7.474;2022-11-20T06:05:38;6.50;99.90
42261;DHT22;27926;48.062;7.474;2022-11-20T06:08:02;6.50;99.90
42261;DHT22;27926;48.062;7.474;2022-11-20T06:10:27;6.50;99.90
42261;DHT22;27926;48.062;7.474;2022-11-20T06:12:51;6.50;99.90
42261;DHT22;27926;48.062;7.474;2022-11-20T06:15:16;6.60;99.90
42261;DHT22;27926;48.062;7.474;2022-11-20T06:17:41;6.50;99.90
42261;DHT22;27926;48.062;7.474;2022-11-20T06:20:06;6.80;99.90
42261;DHT22;27926;48.062;7.474;2022-11-20T06:22:32;6.60;99.90
42261;DHT22;27926;48.062;7.474;2022-11-20T06:24:56;6.60;99.90
42261;DHT22;27926;48.062;7.474;2022-11-20T06:27:21;6.90;99.90
42261;DHT22;27926;48.062;7.474;2022-11-20T06:29:45;6.60;99.90
42261;DHT22;27926;48.062;7.474;2022-11-20T06:32:10;6.60;99.90
42261;DHT22;27926;48.062;7.474;2022-11-20T06:34:35;6.90;99.90
42261;DHT22;27926;48.062;7.474;2022-11-20T06:36:59;7.00;99.90
42261;DHT22;27926;48.062;7.474;2022-11-20T06:39:24;6.80;99.90
42261;DHT22;27926;48.062;7.474;2022-11-20T06:41:48;7.10;99.90
42261;DHT22;27926;48.062;7.474;2022-11-20T06:44:13;6.70;99.90
42261;DHT22;27926;48.062;7.474;2022-11-20T06:46:38;6.70;99.90
42261;DHT22;27926;48.062;7.474;2022-11-20T06:49:03;6.70;99.90
42261;DHT22;27926;48.062;7.474;2022-11-20T06:51:28;6.70;99.90
42261;DHT22;27926;48.062;7.474;2022-11-20T06:53:53;6.70;99.90
42261;DHT22;27926;48.062;7.474;2022-11-20T06:56:17;6.80;99.90
42261;DHT22;27926;48.062;7.474;2022-11-20T06:58:42;6.80;99.90
42261;DHT22;27926;48.062;7.474;2022-11-20T07:01:10;6.80;99.90
42261;DHT22;27926;48.062;7.474;2022-11-20T07:03:35;7.20;99.90
42261;DHT22;27926;48.062;7.474;2022-11-20T07:06:01;6.80;99.90
42261;DHT22;27926;48.062;7.474;2022-11-20T07:08:27;6.80;99.90
42261;DHT22;27926;48.062;7.474;2022-11-20T07:10:51;6.80;99.90
42261;DHT22;27926;48.062;7.474;2022-11-20T07:13:16;6.80;99.90
42261;DHT22;27926;48.062;7.474;2022-11-20T07:15:41;6.80;99.90
42261;DHT22;27926;48.062;7.474;2022-11-20T07:18:05;6.90;99.90
42261;DHT22;27926;48.062;7.474;2022-11-20T07:20:30;6.70;99.90
42261;DHT22;27926;48.062;7.474;2022-11-20T07:22:56;6.70;99.90
42261;DHT22;27926;48.062;7.474;2022-11-20T07:25:22;6.80;99.90
42261;DHT22;27926;48.062;7.474;2022-11-20T07:27:46;6.80;99.90
42261;DHT22;27926;48.062;7.474;2022-11-20T07:30:15;6.80;99.90
42261;DHT22;27926;48.062;7.474;2022-11-20T07:32:40;6.80;99.90
42261;DHT22;27926;48.062;7.474;2022-11-20T07:35:05;6.80;99.90
42261;DHT22;27926;48.062;7.474;2022-11-20T07:37:29;6.80;99.90
42261;DHT22;27926;48.062;7.474;2022-11-20T07:39:54;6.90;99.90
42261;DHT22;27926;48.062;7.474;2022-11-20T07:42:18;8.40;99.90
42261;DHT22;27926;48.062;7.474;2022-11-20T07:44:43;6.90;99.90
42261;DHT22;27926;48.062;7.474;2022-11-20T07:47:08;7.00;99.90
42261;DHT22;27926;48.062;7.474;2022-11-20T07:49:32;6.90;99.90
42261;DHT22;27926;48.062;7.474;2022-11-20T07:51:57;7.40;99.90
42261;DHT22;27926;48.062;7.474;2022-11-20T07:54:22;6.90;99.90
42261;DHT22;27926;48.062;7.474;2022-11-20T07:56:48;6.90;99.90
42261;DHT22;27926;48.062;7.474;2022-11-20T07:59:12;7.00;99.90
42261;DHT22;27926;48.062;7.474;2022-11-20T08:01:38;7.00;99.90
42261;DHT22;27926;48.062;7.474;2022-11-20T08:04:03;7.00;99.90
42261;DHT22;27926;48.062;7.474;2022-11-20T08:06:27;7.00;99.90
42261;DHT22;27926;48.062;7.474;2022-11-20T08:08:52;7.20;99.90
42261;DHT22;27926;48.062;7.474;2022-11-20T08:11:17;7.10;99.90
42261;DHT22;27926;48.062;7.474;2022-11-20T08:14:00;7.20;99.90
42261;DHT22;27926;48.062;7.474;2022-11-20T08:16:43;7.20;99.90
42261;DHT22;27926;48.062;7.474;2022-11-20T08:19:08;7.20;99.90
42261;DHT22;27926;48.062;7.474;2022-11-20T08:21:33;7.30;99.90
42261;DHT22;27926;48.062;7.474;2022-11-20T08:23:58;7.30;99.90
42261;DHT22;27926;48.062;7.474;2022-11-20T08:26:23;7.40;99.90
42261;DHT22;27926;48.062;7.474;2022-11-20T08:28:47;7.60;99.90
42261;DHT22;27926;48.062;7.474;2022-11-20T08:31:12;7.50;99.90
42261;DHT22;27926;48.062;7.474;2022-11-20T08:33:36;7.50;99.90
42261;DHT22;27926;48.062;7.474;2022-11-20T08:36:02;7.50;99.90
42261;DHT22;27926;48.062;7.474;2022-11-20T08:38:27;7.60;99.90
42261;DHT22;27926;48.062;7.474;2022-11-20T08:40:58;7.60;99.90
42261;DHT22;27926;48.062;7.474;2022-11-20T08:43:41;7.70;99.90
42261;DHT22;27926;48.062;7.474;2022-11-20T08:46:06;7.80;99.90
42261;DHT22;27926;48.062;7.474;2022-11-20T08:48:31;7.80;99.90
42261;DHT22;27926;48.062;7.474;2022-11-20T08:50:58;7.80;99.90
42261;DHT22;27926;48.062;7.474;2022-11-20T08:53:23;7.80;99.90
42261;DHT22;27926;48.062;7.474;2022-11-20T08:55:48;7.90;99.90
42261;DHT22;27926;48.062;7.474;2022-11-20T08:58:12;7.90;99.90
42261;DHT22;27926;48.062;7.474;2022-11-20T09:00:37;7.90;99.90
42261;DHT22;27926;48.062;7.474;2022-11-20T09:03:02;8.10;99.90
42261;DHT22;27926;48.062;7.474;2022-11-20T09:05:27;8.10;99.90
42261;DHT22;27926;48.062;7.474;2022-11-20T09:07:51;8.10;99.90
42261;DHT22;27926;48.062;7.474;2022-11-20T09:10:16;8.20;99.90
42261;DHT22;27926;48.062;7.474;2022-11-20T09:12:41;8.30;99.90
42261;DHT22;27926;48.062;7.474;2022-11-20T09:15:06;8.50;99.90
42261;DHT22;27926;48.062;7.474;2022-11-20T09:17:30;8.50;99.90
42261;DHT22;27926;48.062;7.474;2022-11-20T09:19:55;8.50;99.90
42261;DHT22;27926;48.062;7.474;2022-11-20T09:22:19;8.50;99.90
42261;DHT22;27926;48.062;7.474;2022-11-20T09:24:44;8.60;99.90
42261;DHT22;27926;48.062;7.474;2022-11-20T09:27:08;8.70;99.90
42261;DHT22;27926;48.062;7.474;2022-11-20T09:29:33;8.70;99.90
42261;DHT22;27926;48.062;7.474;2022-11-20T09:31:58;8.70;99.90
42261;DHT22;27926;48.062;7.474;2022-11-20T09:34:22;8.70;99.90
42261;DHT22;27926;48.062;7.474;2022-11-20T09:36:47;8.80;99.90
42261;DHT22;27926;48.062;7.474;2022-11-20T09:39:11;8.80;99.90
42261;DHT22;27926;48.062;7.474;2022-11-20T09:50:07;9.30;99.90
42261;DHT22;27926;48.062;7.474;2022-11-20T09:55:41;9.40;99.90
42261;DHT22;27926;48.062;7.474;2022-11-20T09:58:11;9.40;99.90
42261;DHT22;27926;48.062;7.474;2022-11-20T10:00:37;9.40;99.90
42261;DHT22;27926;48.062;7.474;2022-11-20T10:05:52;9.70;99.90
42261;DHT22;27926;48.062;7.474;2022-11-20T10:11:06;9.80;99.90
42261;DHT22;27926;48.062;7.474;2022-11-20T10:22:39;9.70;99.90
42261;DHT22;27926;48.062;7.474;2022-11-20T10:25:19;9.80;99.90
42261;DHT22;27926;48.062;7.474;2022-11-20T10:28:01;9.80;99.90
42261;DHT22;27926;48.062;7.474;2022-11-20T10:30:28;9.90;99.90
42261;DHT22;27926;48.062;7.474;2022-11-20T10:33:00;9.90;99.90
42261;DHT22;27926;48.062;7.474;2022-11-20T10:35:36;9.90;99.90
42261;DHT22;27926;48.062;7.474;2022-11-20T10:38:16;10.00;99.90
42261;DHT22;27926;48.062;7.474;2022-11-20T10:40:58;10.10;99.90
42261;DHT22;27926;48.062;7.474;2022-11-20T10:43:44;10.10;99.90
42261;DHT22;27926;48.062;7.474;2022-11-20T10:46:14;10.00;99.90
42261;DHT22;27926;48.062;7.474;2022-11-20T10:48:41;10.00;99.90
42261;DHT22;27926;48.062;7.474;2022-11-20T10:56:50;9.90;99.90
42261;DHT22;27926;48.062;7.474;2022-11-20T11:02:12;9.80;99.90
42261;DHT22;27926;48.062;7.474;2022-11-20T11:04:49;9.80;99.90
42261;DHT22;27926;48.062;7.474;2022-11-20T11:09:48;9.70;99.90
42261;DHT22;27926;48.062;7.474;2022-11-20T11:12:14;9.70;99.90
42261;DHT22;27926;48.062;7.474;2022-11-20T11:14:50;9.70;99.90
42261;DHT22;27926;48.062;7.474;2022-11-20T11:17:27;9.70;99.90
42261;DHT22;27926;48.062;7.474;2022-11-20T11:20:05;9.80;99.90
42261;DHT22;27926;48.062;7.474;2022-11-20T11:22:33;9.80;99.90
42261;DHT22;27926;48.062;7.474;2022-11-20T11:24:58;9.80;99.90
42261;DHT22;27926;48.062;7.474;2022-11-20T11:27:23;9.90;99.90
42261;DHT22;27926;48.062;7.474;2022-11-20T11:29:48;10.00;99.90
42261;DHT22;27926;48.062;7.474;2022-11-20T11:32:20;10.20;99.90
42261;DHT22;27926;48.062;7.474;2022-11-20T11:35:02;10.40;99.90
42261;DHT22;27926;48.062;7.474;2022-11-20T11:37:32;10.70;99.90
42261;DHT22;27926;48.062;7.474;2022-11-20T11:39:57;10.90;99.90
42261;DHT22;27926;48.062;7.474;2022-11-20T11:42:22;11.10;99.90
42261;DHT22;27926;48.062;7.474;2022-11-20T11:44:47;11.20;99.90
42261;DHT22;27926;48.062;7.474;2022-11-20T11:47:46;11.40;99.90
42261;DHT22;27926;48.062;7.474;2022-11-20T11:52:50;11.60;99.90
42261;DHT22;27926;48.062;7.474;2022-11-20T11:55:44;11.60;99.90
42261;DHT22;27926;48.062;7.474;2022-11-20T12:00:49;11.50;99.90
42261;DHT22;27926;48.062;7.474;2022-11-20T12:03:27;11.50;99.90
42261;DHT22;27926;48.062;7.474;2022-11-20T12:06:03;11.40;99.90
42261;DHT22;27926;48.062;7.474;2022-11-20T12:09:18;11.20;99.90
42261;DHT22;27926;48.062;7.474;2022-11-20T12:11:45;11.10;99.90
42261;DHT22;27926;48.062;7.474;2022-11-20T12:16:48;10.90;99.90
42261;DHT22;27926;48.062;7.474;2022-11-20T12:19:13;11.00;99.90
42261;DHT22;27926;48.062;7.474;2022-11-20T12:24:39;11.20;99.90
42261;DHT22;27926;48.062;7.474;2022-11-20T12:30:10;10.90;99.90
42261;DHT22;27926;48.062;7.474;2022-11-20T12:33:17;10.90;99.90
42261;DHT22;27926;48.062;7.474;2022-11-20T12:36:42;10.80;99.90
42261;DHT22;27926;48.062;7.474;2022-11-20T12:38:53;10.80;99.90
42261;DHT22;27926;48.062;7.474;2022-11-20T12:47:23;10.80;99.90
42261;DHT22;27926;48.062;7.474;2022-11-20T12:50:17;10.80;99.90
42261;DHT22;27926;48.062;7.474;2022-11-20T12:53:05;10.80;99.90
42261;DHT22;27926;48.062;7.474;2022-11-20T13:01:38;10.60;99.90
42261;DHT22;27926;48.062;7.474;2022-11-20T13:06:40;10.30;99.90
42261;DHT22;27926;48.062;7.474;2022-11-20T13:09:13;10.30;99.90
42261;DHT22;27926;48.062;7.474;2022-11-20T13:17:17;10.20;99.90
42261;DHT22;27926;48.062;7.474;2022-11-20T13:19:53;10.30;99.90
42261;DHT22;27926;48.062;7.474;2022-11-20T13:22:26;10.40;99.90
42261;DHT22;27926;48.062;7.474;2022-11-20T13:24:51;10.40;99.90
42261;DHT22;27926;48.062;7.474;2022-11-20T13:27:19;10.50;99.90
42261;DHT22;27926;48.062;7.474;2022-11-20T13:30:00;10.60;99.90
42261;DHT22;27926;48.062;7.474;2022-11-20T13:32:25;10.60;99.90
42261;DHT22;27926;48.062;7.474;2022-11-20T13:35:00;10.40;99.90
42261;DHT22;27926;48.062;7.474;2022-11-20T13:37:37;10.30;99.90
42261;DHT22;27926;48.062;7.474;2022-11-20T13:45:28;10.00;99.90
42261;DHT22;27926;48.062;7.474;2022-11-20T13:47:54;9.90;99.90
42261;DHT22;27926;48.062;7.474;2022-11-20T13:50:21;9.80;99.90
42261;DHT22;27926;48.062;7.474;2022-11-20T13:53:05;9.90;99.90
42261;DHT22;27926;48.062;7.474;2022-11-20T13:55:59;9.70;99.90
42261;DHT22;27926;48.062;7.474;2022-11-20T14:01:36;9.60;99.90
42261;DHT22;27926;48.062;7.474;2022-11-20T14:04:07;9.70;99.90
42261;DHT22;27926;48.062;7.474;2022-11-20T14:06:44;9.70;99.90
42261;DHT22;27926;48.062;7.474;2022-11-20T14:11:50;9.60;99.90
42261;DHT22;27926;48.062;7.474;2022-11-20T14:14:20;9.60;99.90
42261;DHT22;27926;48.062;7.474;2022-11-20T14:16:45;9.60;99.90
42261;DHT22;27926;48.062;7.474;2022-11-20T14:21:43;9.60;99.90
42261;DHT22;27926;48.062;7.474;2022-11-20T14:24:11;9.60;99.90
42261;DHT22;27926;48.062;7.474;2022-11-20T14:26:38;9.70;99.90
42261;DHT22;27926;48.062;7.474;2022-11-20T14:29:05;9.50;99.90
42261;DHT22;27926;48.062;7.474;2022-11-20T14:31:30;9.50;99.90
42261;DHT22;27926;48.062;7.474;2022-11-20T14:33:55;9.40;99.90
42261;DHT22;27926;48.062;7.474;2022-11-20T14:36:23;9.40;99.90
42261;DHT22;27926;48.062;7.474;2022-11-20T14:38:48;9.30;99.90
42261;DHT22;27926;48.062;7.474;2022-11-20T14:41:18;9.30;99.90
42261;DHT22;27926;48.062;7.474;2022-11-20T14:43:46;9.20;99.90
42261;DHT22;27926;48.062;7.474;2022-11-20T14:46:12;9.10;99.90
42261;DHT22;27926;48.062;7.474;2022-11-20T14:48:45;9.10;99.90
42261;DHT22;27926;48.062;7.474;2022-11-20T14:51:22;9.00;99.90
42261;DHT22;27926;48.062;7.474;2022-11-20T14:53:47;8.90;99.90
42261;DHT22;27926;48.062;7.474;2022-11-20T14:56:12;8.90;99.90
42261;DHT22;27926;48.062;7.474;2022-11-20T14:58:36;8.90;99.90
42261;DHT22;27926;48.062;7.474;2022-11-20T15:01:06;8.90;99.90
42261;DHT22;27926;48.062;7.474;2022-11-20T15:03:36;8.80;99.90
42261;DHT22;27926;48.062;7.474;2022-11-20T15:06:01;8.80;99.90
42261;DHT22;27926;48.062;7.474;2022-11-20T15:08:26;8.80;99.90
42261;DHT22;27926;48.062;7.474;2022-11-20T15:10:52;8.80;99.90
42261;DHT22;27926;48.062;7.474;2022-11-20T15:13:30;8.80;99.90
42261;DHT22;27926;48.062;7.474;2022-11-20T15:15:57;8.80;99.90
42261;DHT22;27926;48.062;7.474;2022-11-20T15:18:28;8.80;99.90
42261;DHT22;27926;48.062;7.474;2022-11-20T15:20:55;8.80;99.90
42261;DHT22;27926;48.062;7.474;2022-11-20T15:23:21;8.70;99.90
42261;DHT22;27926;48.062;7.474;2022-11-20T15:25:47;8.70;99.90
42261;DHT22;27926;48.062;7.474;2022-11-20T15:28:57;8.60;99.90
42261;DHT22;27926;48.062;7.474;2022-11-20T15:30:56;8.60;99.90
42261;DHT22;27926;48.062;7.474;2022-11-20T15:33:21;8.50;99.90
42261;DHT22;27926;48.062;7.474;2022-11-20T15:35:46;8.50;99.90
42261;DHT22;27926;48.062;7.474;2022-11-20T15:38:10;8.50;99.90
42261;DHT22;27926;48.062;7.474;2022-11-20T15:40:35;8.40;99.90
42261;DHT22;27926;48.062;7.474;2022-11-20T15:43:00;8.60;99.90
42261;DHT22;27926;48.062;7.474;2022-11-20T15:45:38;8.40;99.90
42261;DHT22;27926;48.062;7.474;2022-11-20T15:48:05;8.50;99.90
42261;DHT22;27926;48.062;7.474;2022-11-20T15:50:39;8.40;99.90
42261;DHT22;27926;48.062;7.474;2022-11-20T15:53:08;8.40;99.90
42261;DHT22;27926;48.062;7.474;2022-11-20T15:55:33;8.30;99.90
42261;DHT22;27926;48.062;7.474;2022-11-20T15:57:58;8.30;99.90
42261;DHT22;27926;48.062;7.474;2022-11-20T16:00:24;8.30;99.90
42261;DHT22;27926;48.062;7.474;2022-11-20T16:02:48;8.30;99.90
42261;DHT22;27926;48.062;7.474;2022-11-20T16:05:14;8.40;99.90
42261;DHT22;27926;48.062;7.474;2022-11-20T16:07:39;8.30;99.90
42261;DHT22;27926;48.062;7.474;2022-11-20T16:10:04;8.30;99.90
42261;DHT22;27926;48.062;7.474;2022-11-20T16:12:28;8.30;99.90
42261;DHT22;27926;48.062;7.474;2022-11-20T16:15:12;8.30;99.90
42261;DHT22;27926;48.062;7.474;2022-11-20T16:17:55;8.30;99.90
42261;DHT22;27926;48.062;7.474;2022-11-20T16:20:19;8.30;99.90
42261;DHT22;27926;48.062;7.474;2022-11-20T16:22:44;8.30;99.90
42261;DHT22;27926;48.062;7.474;2022-11-20T16:25:09;8.30;99.90
42261;DHT22;27926;48.062;7.474;2022-11-20T16:27:33;8.30;99.90
42261;DHT22;27926;48.062;7.474;2022-11-20T16:29:58;8.30;99.90
42261;DHT22;27926;48.062;7.474;2022-11-20T16:32:22;8.30;99.90
42261;DHT22;27926;48.062;7.474;2022-11-20T16:34:50;8.30;99.90
42261;DHT22;27926;48.062;7.474;2022-11-20T16:37:14;8.20;99.90
42261;DHT22;27926;48.062;7.474;2022-11-20T16:39:40;8.30;99.90
42261;DHT22;27926;48.062;7.474;2022-11-20T16:42:04;8.30;99.90
42261;DHT22;27926;48.062;7.474;2022-11-20T16:44:29;8.30;99.90
42261;DHT22;27926;48.062;7.474;2022-11-20T16:46:54;8.30;99.90
42261;DHT22;27926;48.062;7.474;2022-11-20T16:49:19;8.30;99.90
42261;DHT22;27926;48.062;7.474;2022-11-20T16:51:44;8.40;99.90
42261;DHT22;27926;48.062;7.474;2022-11-20T16:54:09;8.40;99.90
42261;DHT22;27926;48.062;7.474;2022-11-20T16:56:34;8.30;99.90
42261;DHT22;27926;48.062;7.474;2022-11-20T16:59:00;8.40;99.90
42261;DHT22;27926;48.062;7.474;2022-11-20T17:01:27;8.30;99.90
42261;DHT22;27926;48.062;7.474;2022-11-20T17:03:56;8.30;99.90
42261;DHT22;27926;48.062;7.474;2022-11-20T17:06:23;8.30;99.90
42261;DHT22;27926;48.062;7.474;2022-11-20T17:08:48;8.20;99.90
42261;DHT22;27926;48.062;7.474;2022-11-20T17:11:15;8.20;99.90
42261;DHT22;27926;48.062;7.474;2022-11-20T17:13:41;8.30;99.90
42261;DHT22;27926;48.062;7.474;2022-11-20T17:16:11;8.20;99.90
42261;DHT22;27926;48.062;7.474;2022-11-20T17:18:36;8.20;99.90
42261;DHT22;27926;48.062;7.474;2022-11-20T17:21:01;8.30;99.90
42261;DHT22;27926;48.062;7.474;2022-11-20T17:23:29;8.20;99.90